Aérodrome :
LOGIN :

S'inscrire | Disclaimer

   EN    FR    IT 

 










Légende :    VFR   VFR Marginal   IFR   IFR Intensif   IFR Très Intensif
Visi : 
Plafond : 
>= 8 km
>= 3000ft
5 à 8 km
1000 à 3000 ft
1500m à 5 km
500 à 1000 ft
800 à 1500m
200 à 500 ft
< 800m
< 200 ft
Symboles :   Orages  Brouillard  Fortes neiges  Fortes précipitations  Vent > 20 kt
SIGMETs :   Divers  Orages  Givrage  Turbulence  Onde Orograph.  Cendres Volcan.







- Altitude de l'aérodrome : 53 ft
- Code IATA : AGP


LEMG - Malaga

DERNIER METAR :
  • 192000Z 13004KT 080V180 9999 FEW035 24/19 Q1020 NOSIG

METARs EXPIRÉS :
  • 191930Z 13003KT 9999 FEW035 25/19 Q1020 NOSIG
  • 191900Z 15003KT 9999 FEW035 25/19 Q1019 NOSIG
  • 191830Z 15004KT 9999 FEW035TCU 25/19 Q1019 NOSIG
  • 191800Z 14004KT 110V170 9999 FEW035TCU 25/20 Q1019 NOSIG
  • 191730Z 13005KT 100V170 9999 FEW035TCU 26/21 Q1019 NOSIG

TAF TAF LEMG
Valide du 19 à 18h jusqu'au 20 à 18h UTC


191700Z 1918/2018 13008KT 9999 FEW030 TX28/2012Z TN21/2006Z
BECMG 1918/1921 VRB03KT
BECMG 2000/2002 29006KT
PROB40
TEMPO 1922/2006 4000 BR BKN008
BECMG 2008/2010 13008KT
Pas de NOTAMs connus pour ce terrain.



MET'MAP, la Météo Aéronautique d'un coup d'oeil ! - Copyright ORBIFLY Décembre 2007 - Disclaimer

ORBIFLY MET'MAP TEAM :

Programmation & Développement : Alexandra Zaïnal
Conception & Développement : Baudouin d'Aumeries
Co-Programmation & Développement : Marc-Olivier Méhu
Soutien technique & logistique : Manuel Goepfert

Contact : metmap@orbifly.com




SOURCES & CREDITS :

   NOAA